sensor_id;sensor_type;location;lat;lon;timestamp;P1;durP1;ratioP1;P2;durP2;ratioP2
21420;SDS011;10871;50.144;8.428;2024-01-16T00:00:36;9.65;;;2.80;;
21420;SDS011;10871;50.144;8.428;2024-01-16T00:03:03;5.80;;;2.50;;
21420;SDS011;10871;50.144;8.428;2024-01-16T00:05:30;7.30;;;2.63;;
21420;SDS011;10871;50.144;8.428;2024-01-16T00:07:56;4.57;;;2.42;;
21420;SDS011;10871;50.144;8.428;2024-01-16T00:10:26;9.07;;;2.90;;
21420;SDS011;10871;50.144;8.428;2024-01-16T00:12:52;7.28;;;2.88;;
21420;SDS011;10871;50.144;8.428;2024-01-16T00:15:18;12.15;;;3.53;;
21420;SDS011;10871;50.144;8.428;2024-01-16T00:17:45;8.63;;;3.10;;
21420;SDS011;10871;50.144;8.428;2024-01-16T00:20:11;6.30;;;2.85;;
21420;SDS011;10871;50.144;8.428;2024-01-16T00:22:38;9.73;;;3.03;;
21420;SDS011;10871;50.144;8.428;2024-01-16T00:25:04;3.75;;;2.60;;
21420;SDS011;10871;50.144;8.428;2024-01-16T00:27:31;6.10;;;3.00;;
21420;SDS011;10871;50.144;8.428;2024-01-16T00:29:57;5.03;;;2.92;;
21420;SDS011;10871;50.144;8.428;2024-01-16T00:32:24;3.63;;;2.50;;
21420;SDS011;10871;50.144;8.428;2024-01-16T00:34:50;6.53;;;2.95;;
21420;SDS011;10871;50.144;8.428;2024-01-16T00:37:17;7.65;;;3.03;;
21420;SDS011;10871;50.144;8.428;2024-01-16T00:39:43;8.18;;;3.20;;
21420;SDS011;10871;50.144;8.428;2024-01-16T00:42:09;7.97;;;3.28;;
21420;SDS011;10871;50.144;8.428;2024-01-16T00:44:36;7.93;;;3.50;;
21420;SDS011;10871;50.144;8.428;2024-01-16T00:47:02;6.10;;;2.83;;
21420;SDS011;10871;50.144;8.428;2024-01-16T00:49:29;7.85;;;3.05;;
21420;SDS011;10871;50.144;8.428;2024-01-16T00:51:55;7.25;;;3.17;;
21420;SDS011;10871;50.144;8.428;2024-01-16T00:54:22;6.10;;;3.03;;
21420;SDS011;10871;50.144;8.428;2024-01-16T00:56:48;6.05;;;3.28;;
21420;SDS011;10871;50.144;8.428;2024-01-16T00:59:15;9.93;;;3.22;;
21420;SDS011;10871;50.144;8.428;2024-01-16T01:01:41;6.82;;;3.15;;
21420;SDS011;10871;50.144;8.428;2024-01-16T01:04:07;5.85;;;3.10;;
21420;SDS011;10871;50.144;8.428;2024-01-16T01:06:35;6.32;;;2.95;;
21420;SDS011;10871;50.144;8.428;2024-01-16T01:09:01;7.57;;;3.58;;
21420;SDS011;10871;50.144;8.428;2024-01-16T01:11:29;9.05;;;3.63;;
21420;SDS011;10871;50.144;8.428;2024-01-16T01:13:55;7.30;;;3.13;;
21420;SDS011;10871;50.144;8.428;2024-01-16T01:16:22;11.68;;;3.55;;
21420;SDS011;10871;50.144;8.428;2024-01-16T01:18:48;5.78;;;3.58;;
21420;SDS011;10871;50.144;8.428;2024-01-16T01:21:15;9.75;;;3.15;;
21420;SDS011;10871;50.144;8.428;2024-01-16T01:23:41;6.47;;;3.50;;
21420;SDS011;10871;50.144;8.428;2024-01-16T01:26:07;7.05;;;3.50;;
21420;SDS011;10871;50.144;8.428;2024-01-16T01:28:34;8.88;;;3.60;;
21420;SDS011;10871;50.144;8.428;2024-01-16T01:31:00;6.10;;;3.42;;
21420;SDS011;10871;50.144;8.428;2024-01-16T01:33:27;5.55;;;3.25;;
21420;SDS011;10871;50.144;8.428;2024-01-16T01:35:53;6.20;;;3.95;;
21420;SDS011;10871;50.144;8.428;2024-01-16T01:38:20;6.88;;;3.55;;
21420;SDS011;10871;50.144;8.428;2024-01-16T01:40:46;6.00;;;3.58;;
21420;SDS011;10871;50.144;8.428;2024-01-16T01:43:16;11.02;;;4.03;;
21420;SDS011;10871;50.144;8.428;2024-01-16T01:45:43;10.98;;;4.38;;
21420;SDS011;10871;50.144;8.428;2024-01-16T01:48:09;11.38;;;3.85;;
21420;SDS011;10871;50.144;8.428;2024-01-16T01:50:36;11.13;;;4.32;;
21420;SDS011;10871;50.144;8.428;2024-01-16T01:53:03;6.43;;;3.72;;
21420;SDS011;10871;50.144;8.428;2024-01-16T01:55:29;8.60;;;3.95;;
21420;SDS011;10871;50.144;8.428;2024-01-16T01:57:56;8.30;;;4.13;;
21420;SDS011;10871;50.144;8.428;2024-01-16T02:00:23;9.07;;;4.10;;
21420;SDS011;10871;50.144;8.428;2024-01-16T02:02:49;9.80;;;3.92;;
21420;SDS011;10871;50.144;8.428;2024-01-16T02:05:19;7.30;;;3.92;;
21420;SDS011;10871;50.144;8.428;2024-01-16T02:07:45;6.78;;;4.05;;
21420;SDS011;10871;50.144;8.428;2024-01-16T02:10:12;5.75;;;3.90;;
21420;SDS011;10871;50.144;8.428;2024-01-16T02:12:38;10.45;;;4.60;;
21420;SDS011;10871;50.144;8.428;2024-01-16T02:15:05;12.07;;;5.55;;
21420;SDS011;10871;50.144;8.428;2024-01-16T02:17:31;9.80;;;4.20;;
21420;SDS011;10871;50.144;8.428;2024-01-16T02:19:58;10.00;;;4.38;;
21420;SDS011;10871;50.144;8.428;2024-01-16T02:22:24;7.00;;;4.63;;
21420;SDS011;10871;50.144;8.428;2024-01-16T02:24:54;9.98;;;4.28;;
21420;SDS011;10871;50.144;8.428;2024-01-16T02:27:20;12.40;;;4.55;;
21420;SDS011;10871;50.144;8.428;2024-01-16T02:29:46;9.05;;;5.07;;
21420;SDS011;10871;50.144;8.428;2024-01-16T02:32:13;8.15;;;4.78;;
21420;SDS011;10871;50.144;8.428;2024-01-16T02:34:41;8.80;;;4.97;;
21420;SDS011;10871;50.144;8.428;2024-01-16T02:37:08;8.95;;;4.80;;
21420;SDS011;10871;50.144;8.428;2024-01-16T02:39:34;13.48;;;4.60;;
21420;SDS011;10871;50.144;8.428;2024-01-16T02:42:01;8.20;;;5.15;;
21420;SDS011;10871;50.144;8.428;2024-01-16T02:44:27;9.27;;;4.72;;
21420;SDS011;10871;50.144;8.428;2024-01-16T02:46:54;7.45;;;4.15;;
21420;SDS011;10871;50.144;8.428;2024-01-16T02:49:21;11.07;;;4.32;;
21420;SDS011;10871;50.144;8.428;2024-01-16T02:51:47;10.13;;;4.70;;
21420;SDS011;10871;50.144;8.428;2024-01-16T02:54:14;12.02;;;4.88;;
21420;SDS011;10871;50.144;8.428;2024-01-16T02:56:40;12.10;;;4.85;;
21420;SDS011;10871;50.144;8.428;2024-01-16T02:59:06;13.77;;;4.63;;
21420;SDS011;10871;50.144;8.428;2024-01-16T03:01:33;9.70;;;4.32;;
21420;SDS011;10871;50.144;8.428;2024-01-16T03:04:00;14.43;;;4.82;;
21420;SDS011;10871;50.144;8.428;2024-01-16T03:06:26;9.07;;;4.75;;
21420;SDS011;10871;50.144;8.428;2024-01-16T03:08:54;9.18;;;4.25;;
21420;SDS011;10871;50.144;8.428;2024-01-16T03:11:21;10.52;;;4.80;;
21420;SDS011;10871;50.144;8.428;2024-01-16T03:13:48;9.02;;;4.60;;
21420;SDS011;10871;50.144;8.428;2024-01-16T03:16:15;9.30;;;5.20;;
21420;SDS011;10871;50.144;8.428;2024-01-16T03:18:42;10.05;;;4.47;;
21420;SDS011;10871;50.144;8.428;2024-01-16T03:21:08;12.60;;;4.55;;
21420;SDS011;10871;50.144;8.428;2024-01-16T03:23:35;8.98;;;4.43;;
21420;SDS011;10871;50.144;8.428;2024-01-16T03:26:01;10.23;;;4.28;;
21420;SDS011;10871;50.144;8.428;2024-01-16T03:28:29;7.82;;;4.28;;
21420;SDS011;10871;50.144;8.428;2024-01-16T03:30:56;8.90;;;4.15;;
21420;SDS011;10871;50.144;8.428;2024-01-16T03:33:22;14.98;;;4.55;;
21420;SDS011;10871;50.144;8.428;2024-01-16T03:35:49;13.07;;;4.68;;
21420;SDS011;10871;50.144;8.428;2024-01-16T03:38:15;8.18;;;4.22;;
21420;SDS011;10871;50.144;8.428;2024-01-16T03:40:42;10.98;;;4.05;;
21420;SDS011;10871;50.144;8.428;2024-01-16T03:43:08;13.23;;;4.05;;
21420;SDS011;10871;50.144;8.428;2024-01-16T03:45:34;8.75;;;3.83;;
21420;SDS011;10871;50.144;8.428;2024-01-16T03:48:01;8.50;;;4.00;;
21420;SDS011;10871;50.144;8.428;2024-01-16T03:50:29;10.00;;;4.10;;
21420;SDS011;10871;50.144;8.428;2024-01-16T03:52:56;13.75;;;4.28;;
21420;SDS011;10871;50.144;8.428;2024-01-16T03:55:22;9.35;;;3.70;;
21420;SDS011;10871;50.144;8.428;2024-01-16T03:57:49;7.40;;;3.65;;
21420;SDS011;10871;50.144;8.428;2024-01-16T04:00:17;8.50;;;3.67;;
21420;SDS011;10871;50.144;8.428;2024-01-16T04:02:43;8.15;;;3.58;;
21420;SDS011;10871;50.144;8.428;2024-01-16T04:05:10;8.73;;;4.13;;
21420;SDS011;10871;50.144;8.428;2024-01-16T04:07:36;8.07;;;3.65;;
21420;SDS011;10871;50.144;8.428;2024-01-16T04:10:03;8.80;;;3.85;;
21420;SDS011;10871;50.144;8.428;2024-01-16T04:12:31;6.50;;;3.83;;
21420;SDS011;10871;50.144;8.428;2024-01-16T04:14:57;7.35;;;4.25;;
21420;SDS011;10871;50.144;8.428;2024-01-16T04:17:24;6.43;;;4.28;;
21420;SDS011;10871;50.144;8.428;2024-01-16T04:19:50;8.57;;;3.90;;
21420;SDS011;10871;50.144;8.428;2024-01-16T04:22:17;8.25;;;3.95;;
21420;SDS011;10871;50.144;8.428;2024-01-16T04:24:43;8.48;;;4.10;;
21420;SDS011;10871;50.144;8.428;2024-01-16T04:27:10;9.70;;;3.92;;
21420;SDS011;10871;50.144;8.428;2024-01-16T04:29:37;15.75;;;4.00;;
21420;SDS011;10871;50.144;8.428;2024-01-16T04:32:03;12.35;;;3.92;;
21420;SDS011;10871;50.144;8.428;2024-01-16T04:34:30;10.27;;;3.97;;
21420;SDS011;10871;50.144;8.428;2024-01-16T04:36:56;9.43;;;3.90;;
21420;SDS011;10871;50.144;8.428;2024-01-16T04:39:23;13.73;;;3.80;;
21420;SDS011;10871;50.144;8.428;2024-01-16T04:41:49;8.73;;;4.03;;
21420;SDS011;10871;50.144;8.428;2024-01-16T04:44:16;8.57;;;3.92;;
21420;SDS011;10871;50.144;8.428;2024-01-16T04:46:42;9.70;;;3.88;;
21420;SDS011;10871;50.144;8.428;2024-01-16T04:49:09;10.40;;;3.90;;
21420;SDS011;10871;50.144;8.428;2024-01-16T04:51:35;7.85;;;3.90;;
21420;SDS011;10871;50.144;8.428;2024-01-16T04:54:01;8.60;;;4.25;;
21420;SDS011;10871;50.144;8.428;2024-01-16T04:56:28;12.27;;;4.72;;
21420;SDS011;10871;50.144;8.428;2024-01-16T04:58:54;12.57;;;4.70;;
21420;SDS011;10871;50.144;8.428;2024-01-16T05:01:20;10.05;;;4.70;;
21420;SDS011;10871;50.144;8.428;2024-01-16T05:03:47;11.90;;;4.65;;
21420;SDS011;10871;50.144;8.428;2024-01-16T05:06:14;9.85;;;4.28;;
21420;SDS011;10871;50.144;8.428;2024-01-16T05:08:41;10.35;;;4.85;;
21420;SDS011;10871;50.144;8.428;2024-01-16T05:11:08;10.13;;;4.47;;
21420;SDS011;10871;50.144;8.428;2024-01-16T05:13:34;8.88;;;4.38;;
21420;SDS011;10871;50.144;8.428;2024-01-16T05:16:01;9.20;;;4.10;;
21420;SDS011;10871;50.144;8.428;2024-01-16T05:18:27;14.50;;;4.18;;
21420;SDS011;10871;50.144;8.428;2024-01-16T05:20:54;8.95;;;4.10;;
21420;SDS011;10871;50.144;8.428;2024-01-16T05:23:24;10.95;;;4.60;;
21420;SDS011;10871;50.144;8.428;2024-01-16T05:25:50;8.02;;;4.00;;
21420;SDS011;10871;50.144;8.428;2024-01-16T05:28:16;9.85;;;3.80;;
21420;SDS011;10871;50.144;8.428;2024-01-16T05:30:43;12.30;;;4.65;;
21420;SDS011;10871;50.144;8.428;2024-01-16T05:33:10;9.20;;;4.07;;
21420;SDS011;10871;50.144;8.428;2024-01-16T05:35:36;7.13;;;3.88;;
21420;SDS011;10871;50.144;8.428;2024-01-16T05:38:04;5.78;;;3.78;;
21420;SDS011;10871;50.144;8.428;2024-01-16T05:40:30;8.38;;;3.97;;
21420;SDS011;10871;50.144;8.428;2024-01-16T05:42:57;8.13;;;3.85;;
21420;SDS011;10871;50.144;8.428;2024-01-16T05:45:24;14.98;;;4.95;;
21420;SDS011;10871;50.144;8.428;2024-01-16T05:47:50;9.38;;;3.92;;
21420;SDS011;10871;50.144;8.428;2024-01-16T05:50:16;7.43;;;4.18;;
21420;SDS011;10871;50.144;8.428;2024-01-16T05:52:44;11.63;;;4.32;;
21420;SDS011;10871;50.144;8.428;2024-01-16T05:55:12;6.38;;;4.10;;
21420;SDS011;10871;50.144;8.428;2024-01-16T05:57:39;10.02;;;4.07;;
21420;SDS011;10871;50.144;8.428;2024-01-16T06:00:05;5.70;;;3.63;;
21420;SDS011;10871;50.144;8.428;2024-01-16T06:02:32;11.35;;;4.30;;
21420;SDS011;10871;50.144;8.428;2024-01-16T06:05:00;10.57;;;3.90;;
21420;SDS011;10871;50.144;8.428;2024-01-16T06:07:26;7.15;;;3.90;;
21420;SDS011;10871;50.144;8.428;2024-01-16T06:09:53;7.82;;;3.50;;
21420;SDS011;10871;50.144;8.428;2024-01-16T06:12:19;6.88;;;3.55;;
21420;SDS011;10871;50.144;8.428;2024-01-16T06:14:46;12.80;;;4.03;;
21420;SDS011;10871;50.144;8.428;2024-01-16T06:17:12;8.70;;;4.43;;
21420;SDS011;10871;50.144;8.428;2024-01-16T06:19:39;9.70;;;4.38;;
21420;SDS011;10871;50.144;8.428;2024-01-16T06:22:05;11.73;;;4.45;;
21420;SDS011;10871;50.144;8.428;2024-01-16T06:24:32;13.65;;;4.32;;
21420;SDS011;10871;50.144;8.428;2024-01-16T06:27:06;12.52;;;5.15;;
21420;SDS011;10871;50.144;8.428;2024-01-16T06:29:33;11.88;;;4.35;;
21420;SDS011;10871;50.144;8.428;2024-01-16T06:32:01;8.02;;;3.88;;
21420;SDS011;10871;50.144;8.428;2024-01-16T06:34:27;10.95;;;3.80;;
21420;SDS011;10871;50.144;8.428;2024-01-16T06:36:54;10.27;;;3.90;;
21420;SDS011;10871;50.144;8.428;2024-01-16T06:39:20;9.07;;;4.00;;
21420;SDS011;10871;50.144;8.428;2024-01-16T06:41:47;10.05;;;3.40;;
21420;SDS011;10871;50.144;8.428;2024-01-16T06:44:13;7.07;;;3.55;;
21420;SDS011;10871;50.144;8.428;2024-01-16T06:46:39;8.38;;;4.13;;
21420;SDS011;10871;50.144;8.428;2024-01-16T06:49:06;10.02;;;4.25;;
21420;SDS011;10871;50.144;8.428;2024-01-16T06:51:33;9.18;;;3.42;;
21420;SDS011;10871;50.144;8.428;2024-01-16T06:53:59;6.40;;;3.50;;
21420;SDS011;10871;50.144;8.428;2024-01-16T06:56:26;6.72;;;3.40;;
21420;SDS011;10871;50.144;8.428;2024-01-16T06:58:52;11.57;;;3.28;;
21420;SDS011;10871;50.144;8.428;2024-01-16T07:01:19;6.50;;;3.00;;
21420;SDS011;10871;50.144;8.428;2024-01-16T07:03:45;8.25;;;2.92;;
21420;SDS011;10871;50.144;8.428;2024-01-16T07:06:12;7.47;;;3.00;;
21420;SDS011;10871;50.144;8.428;2024-01-16T07:08:38;8.77;;;3.75;;
21420;SDS011;10871;50.144;8.428;2024-01-16T07:11:05;8.80;;;3.42;;
21420;SDS011;10871;50.144;8.428;2024-01-16T07:13:35;10.32;;;3.97;;
21420;SDS011;10871;50.144;8.428;2024-01-16T07:16:01;76.97;;;25.45;;
21420;SDS011;10871;50.144;8.428;2024-01-16T07:18:27;76.05;;;24.90;;
21420;SDS011;10871;50.144;8.428;2024-01-16T07:20:54;27.83;;;10.35;;
21420;SDS011;10871;50.144;8.428;2024-01-16T07:23:21;14.77;;;5.30;;
21420;SDS011;10871;50.144;8.428;2024-01-16T07:25:47;10.20;;;4.63;;
21420;SDS011;10871;50.144;8.428;2024-01-16T07:28:13;8.13;;;3.95;;
21420;SDS011;10871;50.144;8.428;2024-01-16T07:30:41;9.23;;;4.07;;
21420;SDS011;10871;50.144;8.428;2024-01-16T07:33:07;18.52;;;4.57;;
21420;SDS011;10871;50.144;8.428;2024-01-16T07:35:34;12.48;;;4.13;;
21420;SDS011;10871;50.144;8.428;2024-01-16T07:38:00;6.43;;;3.92;;
21420;SDS011;10871;50.144;8.428;2024-01-16T07:40:30;10.23;;;4.10;;
21420;SDS011;10871;50.144;8.428;2024-01-16T07:42:56;10.48;;;4.35;;
21420;SDS011;10871;50.144;8.428;2024-01-16T07:45:23;27.48;;;9.43;;
21420;SDS011;10871;50.144;8.428;2024-01-16T07:47:50;17.50;;;8.02;;
21420;SDS011;10871;50.144;8.428;2024-01-16T07:50:16;11.77;;;5.85;;
21420;SDS011;10871;50.144;8.428;2024-01-16T07:52:43;16.50;;;5.20;;
21420;SDS011;10871;50.144;8.428;2024-01-16T07:55:09;11.85;;;4.45;;
21420;SDS011;10871;50.144;8.428;2024-01-16T07:57:36;9.40;;;4.13;;
21420;SDS011;10871;50.144;8.428;2024-01-16T08:00:02;8.45;;;4.57;;
21420;SDS011;10871;50.144;8.428;2024-01-16T08:02:33;8.90;;;4.40;;
21420;SDS011;10871;50.144;8.428;2024-01-16T08:05:04;8.48;;;4.35;;
21420;SDS011;10871;50.144;8.428;2024-01-16T08:07:30;9.43;;;3.90;;
21420;SDS011;10871;50.144;8.428;2024-01-16T08:09:57;10.50;;;4.78;;
21420;SDS011;10871;50.144;8.428;2024-01-16T08:12:24;9.48;;;4.18;;
21420;SDS011;10871;50.144;8.428;2024-01-16T08:14:50;9.65;;;4.70;;
21420;SDS011;10871;50.144;8.428;2024-01-16T08:17:17;11.57;;;4.07;;
21420;SDS011;10871;50.144;8.428;2024-01-16T08:19:44;12.52;;;4.90;;
21420;SDS011;10871;50.144;8.428;2024-01-16T08:22:10;8.35;;;4.60;;
21420;SDS011;10871;50.144;8.428;2024-01-16T08:24:36;9.07;;;4.70;;
21420;SDS011;10871;50.144;8.428;2024-01-16T08:27:03;8.32;;;4.43;;
21420;SDS011;10871;50.144;8.428;2024-01-16T08:29:29;11.85;;;4.80;;
21420;SDS011;10871;50.144;8.428;2024-01-16T08:31:55;7.63;;;4.57;;
21420;SDS011;10871;50.144;8.428;2024-01-16T08:34:22;12.02;;;4.85;;
21420;SDS011;10871;50.144;8.428;2024-01-16T08:36:49;12.02;;;5.03;;
21420;SDS011;10871;50.144;8.428;2024-01-16T08:39:15;13.27;;;5.35;;
21420;SDS011;10871;50.144;8.428;2024-01-16T08:41:42;9.93;;;6.05;;
21420;SDS011;10871;50.144;8.428;2024-01-16T08:44:11;11.05;;;5.30;;
21420;SDS011;10871;50.144;8.428;2024-01-16T08:46:37;10.85;;;4.90;;
21420;SDS011;10871;50.144;8.428;2024-01-16T08:49:03;17.35;;;5.68;;
21420;SDS011;10871;50.144;8.428;2024-01-16T08:51:30;13.90;;;5.15;;
21420;SDS011;10871;50.144;8.428;2024-01-16T08:53:56;10.23;;;5.45;;
21420;SDS011;10871;50.144;8.428;2024-01-16T08:56:23;9.38;;;5.18;;
21420;SDS011;10871;50.144;8.428;2024-01-16T08:58:49;8.57;;;5.35;;
21420;SDS011;10871;50.144;8.428;2024-01-16T09:01:15;10.45;;;5.53;;
21420;SDS011;10871;50.144;8.428;2024-01-16T09:03:42;14.35;;;6.05;;
21420;SDS011;10871;50.144;8.428;2024-01-16T09:06:09;9.15;;;5.60;;
21420;SDS011;10871;50.144;8.428;2024-01-16T09:08:37;9.45;;;5.90;;
21420;SDS011;10871;50.144;8.428;2024-01-16T09:11:03;9.82;;;5.40;;
21420;SDS011;10871;50.144;8.428;2024-01-16T09:13:29;12.43;;;5.43;;
21420;SDS011;10871;50.144;8.428;2024-01-16T09:15:56;8.68;;;4.80;;
21420;SDS011;10871;50.144;8.428;2024-01-16T09:18:22;9.38;;;3.92;;
21420;SDS011;10871;50.144;8.428;2024-01-16T09:20:49;9.55;;;4.25;;
21420;SDS011;10871;50.144;8.428;2024-01-16T09:23:15;10.60;;;4.45;;
21420;SDS011;10871;50.144;8.428;2024-01-16T09:25:42;10.82;;;4.63;;
21420;SDS011;10871;50.144;8.428;2024-01-16T09:28:13;10.55;;;4.72;;
21420;SDS011;10871;50.144;8.428;2024-01-16T09:30:41;8.80;;;4.28;;
21420;SDS011;10871;50.144;8.428;2024-01-16T09:33:08;10.85;;;4.30;;
21420;SDS011;10871;50.144;8.428;2024-01-16T09:35:37;9.20;;;4.05;;
21420;SDS011;10871;50.144;8.428;2024-01-16T09:38:04;10.52;;;3.90;;
21420;SDS011;10871;50.144;8.428;2024-01-16T09:40:33;12.98;;;4.00;;
21420;SDS011;10871;50.144;8.428;2024-01-16T09:42:59;7.85;;;3.80;;
21420;SDS011;10871;50.144;8.428;2024-01-16T09:45:26;8.43;;;4.03;;
21420;SDS011;10871;50.144;8.428;2024-01-16T09:47:53;8.00;;;4.13;;
21420;SDS011;10871;50.144;8.428;2024-01-16T09:50:20;10.40;;;4.30;;
21420;SDS011;10871;50.144;8.428;2024-01-16T09:52:47;11.40;;;4.50;;
21420;SDS011;10871;50.144;8.428;2024-01-16T09:55:14;7.72;;;4.15;;
21420;SDS011;10871;50.144;8.428;2024-01-16T09:57:41;9.20;;;5.20;;
21420;SDS011;10871;50.144;8.428;2024-01-16T10:00:08;7.57;;;4.35;;
21420;SDS011;10871;50.144;8.428;2024-01-16T10:02:41;7.57;;;4.40;;
21420;SDS011;10871;50.144;8.428;2024-01-16T10:05:11;10.95;;;4.50;;
21420;SDS011;10871;50.144;8.428;2024-01-16T10:07:38;10.50;;;4.28;;
21420;SDS011;10871;50.144;8.428;2024-01-16T10:10:05;7.32;;;4.00;;
21420;SDS011;10871;50.144;8.428;2024-01-16T10:12:32;14.23;;;4.22;;
21420;SDS011;10871;50.144;8.428;2024-01-16T10:14:59;8.57;;;4.05;;
21420;SDS011;10871;50.144;8.428;2024-01-16T10:17:35;10.15;;;4.20;;
21420;SDS011;10871;50.144;8.428;2024-01-16T10:20:02;10.60;;;4.70;;
21420;SDS011;10871;50.144;8.428;2024-01-16T10:22:31;12.15;;;4.88;;
21420;SDS011;10871;50.144;8.428;2024-01-16T10:25:07;6.38;;;3.85;;
21420;SDS011;10871;50.144;8.428;2024-01-16T10:27:35;9.95;;;4.25;;
21420;SDS011;10871;50.144;8.428;2024-01-16T10:30:02;7.35;;;4.07;;
21420;SDS011;10871;50.144;8.428;2024-01-16T10:32:34;11.40;;;4.25;;
21420;SDS011;10871;50.144;8.428;2024-01-16T10:35:01;9.75;;;4.43;;
21420;SDS011;10871;50.144;8.428;2024-01-16T10:37:28;10.93;;;5.00;;
21420;SDS011;10871;50.144;8.428;2024-01-16T10:39:54;12.20;;;4.57;;
21420;SDS011;10871;50.144;8.428;2024-01-16T10:42:20;10.35;;;4.53;;
21420;SDS011;10871;50.144;8.428;2024-01-16T10:44:53;9.73;;;4.57;;
21420;SDS011;10871;50.144;8.428;2024-01-16T10:47:21;11.20;;;4.10;;
21420;SDS011;10871;50.144;8.428;2024-01-16T10:49:47;8.93;;;4.43;;
21420;SDS011;10871;50.144;8.428;2024-01-16T10:52:14;10.45;;;4.90;;
21420;SDS011;10871;50.144;8.428;2024-01-16T10:54:41;8.52;;;4.72;;
21420;SDS011;10871;50.144;8.428;2024-01-16T10:57:07;11.77;;;4.57;;
21420;SDS011;10871;50.144;8.428;2024-01-16T10:59:36;8.02;;;4.50;;
21420;SDS011;10871;50.144;8.428;2024-01-16T11:02:07;9.32;;;5.10;;
21420;SDS011;10871;50.144;8.428;2024-01-16T11:04:37;11.45;;;4.65;;
21420;SDS011;10871;50.144;8.428;2024-01-16T11:07:04;11.95;;;4.57;;
21420;SDS011;10871;50.144;8.428;2024-01-16T11:09:31;7.43;;;4.25;;
21420;SDS011;10871;50.144;8.428;2024-01-16T11:11:57;10.10;;;4.32;;
21420;SDS011;10871;50.144;8.428;2024-01-16T11:14:25;12.23;;;4.35;;
21420;SDS011;10871;50.144;8.428;2024-01-16T11:16:52;8.93;;;4.32;;
21420;SDS011;10871;50.144;8.428;2024-01-16T11:19:19;7.95;;;4.22;;
21420;SDS011;10871;50.144;8.428;2024-01-16T11:22:06;10.27;;;4.13;;
21420;SDS011;10871;50.144;8.428;2024-01-16T11:24:33;8.45;;;4.30;;
21420;SDS011;10871;50.144;8.428;2024-01-16T11:27:00;9.57;;;4.28;;
21420;SDS011;10871;50.144;8.428;2024-01-16T11:31:53;8.52;;;3.95;;
21420;SDS011;10871;50.144;8.428;2024-01-16T11:37:10;8.35;;;3.42;;
21420;SDS011;10871;50.144;8.428;2024-01-16T11:39:37;7.60;;;3.88;;
21420;SDS011;10871;50.144;8.428;2024-01-16T11:42:04;7.40;;;3.78;;
21420;SDS011;10871;50.144;8.428;2024-01-16T11:47:06;7.97;;;3.58;;
21420;SDS011;10871;50.144;8.428;2024-01-16T11:49:33;7.20;;;3.50;;
21420;SDS011;10871;50.144;8.428;2024-01-16T11:52:00;9.15;;;3.60;;
21420;SDS011;10871;50.144;8.428;2024-01-16T11:54:26;6.18;;;3.45;;
21420;SDS011;10871;50.144;8.428;2024-01-16T12:02:26;11.32;;;4.20;;
21420;SDS011;10871;50.144;8.428;2024-01-16T12:04:55;12.07;;;4.50;;
21420;SDS011;10871;50.144;8.428;2024-01-16T12:07:22;8.70;;;4.03;;
21420;SDS011;10871;50.144;8.428;2024-01-16T12:09:49;11.07;;;3.53;;
21420;SDS011;10871;50.144;8.428;2024-01-16T12:12:15;10.60;;;4.20;;
21420;SDS011;10871;50.144;8.428;2024-01-16T12:14:45;8.93;;;4.40;;
21420;SDS011;10871;50.144;8.428;2024-01-16T12:17:16;8.40;;;4.30;;
21420;SDS011;10871;50.144;8.428;2024-01-16T12:19:45;11.05;;;4.68;;
21420;SDS011;10871;50.144;8.428;2024-01-16T12:22:15;9.27;;;4.32;;
21420;SDS011;10871;50.144;8.428;2024-01-16T12:24:42;7.43;;;3.88;;
21420;SDS011;10871;50.144;8.428;2024-01-16T12:27:09;6.35;;;3.80;;
21420;SDS011;10871;50.144;8.428;2024-01-16T12:29:35;8.15;;;4.20;;
21420;SDS011;10871;50.144;8.428;2024-01-16T12:32:06;9.30;;;4.57;;
21420;SDS011;10871;50.144;8.428;2024-01-16T12:34:34;11.48;;;3.72;;
21420;SDS011;10871;50.144;8.428;2024-01-16T12:37:05;9.13;;;3.88;;
21420;SDS011;10871;50.144;8.428;2024-01-16T12:39:33;10.05;;;4.30;;
21420;SDS011;10871;50.144;8.428;2024-01-16T12:42:01;6.95;;;3.80;;
21420;SDS011;10871;50.144;8.428;2024-01-16T12:44:28;6.50;;;3.78;;
21420;SDS011;10871;50.144;8.428;2024-01-16T12:46:55;9.93;;;4.18;;
21420;SDS011;10871;50.144;8.428;2024-01-16T12:49:25;6.80;;;3.63;;
21420;SDS011;10871;50.144;8.428;2024-01-16T12:51:51;6.32;;;3.92;;
21420;SDS011;10871;50.144;8.428;2024-01-16T12:54:38;9.63;;;4.32;;
21420;SDS011;10871;50.144;8.428;2024-01-16T12:57:05;9.82;;;4.32;;
21420;SDS011;10871;50.144;8.428;2024-01-16T12:59:32;9.70;;;4.47;;
21420;SDS011;10871;50.144;8.428;2024-01-16T13:01:58;7.90;;;4.45;;
21420;SDS011;10871;50.144;8.428;2024-01-16T13:04:26;7.53;;;3.67;;
21420;SDS011;10871;50.144;8.428;2024-01-16T13:07:01;10.88;;;4.60;;
21420;SDS011;10871;50.144;8.428;2024-01-16T13:09:27;9.02;;;4.30;;
21420;SDS011;10871;50.144;8.428;2024-01-16T13:11:54;10.27;;;4.43;;
21420;SDS011;10871;50.144;8.428;2024-01-16T13:14:22;8.65;;;4.68;;
21420;SDS011;10871;50.144;8.428;2024-01-16T13:16:49;8.60;;;3.80;;
21420;SDS011;10871;50.144;8.428;2024-01-16T13:19:17;10.27;;;4.35;;
21420;SDS011;10871;50.144;8.428;2024-01-16T13:21:43;10.23;;;4.40;;
21420;SDS011;10871;50.144;8.428;2024-01-16T13:24:10;8.30;;;4.65;;
21420;SDS011;10871;50.144;8.428;2024-01-16T13:26:36;8.25;;;3.85;;
21420;SDS011;10871;50.144;8.428;2024-01-16T13:29:04;7.85;;;4.57;;
21420;SDS011;10871;50.144;8.428;2024-01-16T13:31:32;7.20;;;3.95;;
21420;SDS011;10871;50.144;8.428;2024-01-16T13:33:59;11.90;;;4.28;;
21420;SDS011;10871;50.144;8.428;2024-01-16T13:36:25;10.10;;;4.18;;
21420;SDS011;10871;50.144;8.428;2024-01-16T13:39:12;7.30;;;4.00;;
21420;SDS011;10871;50.144;8.428;2024-01-16T13:41:42;8.00;;;3.80;;
21420;SDS011;10871;50.144;8.428;2024-01-16T13:44:08;7.13;;;4.00;;
21420;SDS011;10871;50.144;8.428;2024-01-16T13:46:34;6.78;;;3.60;;
21420;SDS011;10871;50.144;8.428;2024-01-16T13:49:22;7.20;;;3.47;;
21420;SDS011;10871;50.144;8.428;2024-01-16T13:51:49;7.80;;;4.13;;
21420;SDS011;10871;50.144;8.428;2024-01-16T13:54:15;11.68;;;3.50;;
21420;SDS011;10871;50.144;8.428;2024-01-16T13:56:42;8.95;;;3.90;;
21420;SDS011;10871;50.144;8.428;2024-01-16T13:59:29;9.57;;;3.88;;
21420;SDS011;10871;50.144;8.428;2024-01-16T14:01:55;10.20;;;3.55;;
21420;SDS011;10871;50.144;8.428;2024-01-16T14:04:22;7.78;;;3.42;;
21420;SDS011;10871;50.144;8.428;2024-01-16T14:06:48;13.50;;;4.10;;
21420;SDS011;10871;50.144;8.428;2024-01-16T14:09:35;7.60;;;3.60;;
21420;SDS011;10871;50.144;8.428;2024-01-16T14:12:02;8.60;;;4.00;;
21420;SDS011;10871;50.144;8.428;2024-01-16T14:14:28;12.32;;;4.50;;
21420;SDS011;10871;50.144;8.428;2024-01-16T14:16:55;9.15;;;4.20;;
21420;SDS011;10871;50.144;8.428;2024-01-16T14:19:27;10.80;;;4.78;;
21420;SDS011;10871;50.144;8.428;2024-01-16T14:21:56;8.73;;;4.72;;
21420;SDS011;10871;50.144;8.428;2024-01-16T14:24:23;8.43;;;4.40;;
21420;SDS011;10871;50.144;8.428;2024-01-16T14:26:49;10.27;;;4.43;;
21420;SDS011;10871;50.144;8.428;2024-01-16T14:29:16;10.90;;;4.95;;
21420;SDS011;10871;50.144;8.428;2024-01-16T14:31:42;11.25;;;4.93;;
21420;SDS011;10871;50.144;8.428;2024-01-16T14:34:15;9.32;;;4.78;;
21420;SDS011;10871;50.144;8.428;2024-01-16T14:36:42;7.55;;;4.57;;
21420;SDS011;10871;50.144;8.428;2024-01-16T14:39:08;15.05;;;5.22;;
21420;SDS011;10871;50.144;8.428;2024-01-16T14:41:39;11.52;;;5.55;;
21420;SDS011;10871;50.144;8.428;2024-01-16T14:44:08;10.77;;;5.93;;
21420;SDS011;10871;50.144;8.428;2024-01-16T14:46:35;14.35;;;6.50;;
21420;SDS011;10871;50.144;8.428;2024-01-16T14:49:02;13.20;;;6.15;;
21420;SDS011;10871;50.144;8.428;2024-01-16T14:51:29;11.15;;;5.40;;
21420;SDS011;10871;50.144;8.428;2024-01-16T14:53:55;12.63;;;5.88;;
21420;SDS011;10871;50.144;8.428;2024-01-16T14:56:22;12.48;;;5.72;;